Data for 10/18/2006

Time Sea-Level Adjusted Pressure Absolute Pressure Temperature Relative Humidity Dew Point   
(mb) (inHg) (mb) (inHg) (C) (F) (%) (C) (F)
00:05 1021 30.15 850 25.1 -1 30.3 84 -3.3 26.1
00:10 1020 30.12 850 25.1 -1.2 29.9 85 -3.3 26
00:15 1020 30.12 850 25.1 -1.1 29.9 85 -3.4 25.9
00:20 1020 30.12 850 25.1 -1.2 29.8 86 -3.4 25.9
00:25 1020 30.12 850 25.1 -1.4 29.5 87 -3.3 26.1
00:30 1020 30.12 850 25.1 -1.4 29.4 90 -2.9 26.7
00:35 1020 30.12 850 25.1 -1.5 29.4 90 -2.9 26.8
00:40 1020 30.12 849 25.07 -1.7 28.9 89 -3.3 26
00:45 1020 30.12 849 25.07 -1.6 29.1 85 -3.8 25.2
00:50 1020 30.12 849 25.07 -1.5 29.4 83 -4 24.8
00:55 1020 30.12 849 25.07 -1.4 29.5 84 -3.7 25.4
01:00 1020 30.12 849 25.07 -1.3 29.7 82 -4 24.8
01:05 1020 30.12 849 25.07 -1.1 30 81 -4 24.9
01:10 1020 30.12 849 25.07 -1 30.1 81 -3.9 24.9
01:15 1020 30.12 849 25.07 -0.7 30.8 75 -4.6 23.8
01:20 1020 30.12 849 25.07 -0.2 31.6 74 -4.4 24.1
01:25 1020 30.12 849 25.07 -0.1 31.8 75 -4 24.8
01:30 1020 30.12 849 25.07 -0.1 31.8 76 -3.8 25.1
01:35 1020 30.12 849 25.07 -0.3 31.5 76 -4 24.8
01:40 1020 30.12 849 25.07 -0.5 31 81 -3.4 25.8
01:45 1020 30.12 849 25.07 -0.7 30.8 82 -3.4 25.9
01:50 1020 30.12 849 25.07 -0.9 30.4 82 -3.6 25.6
01:55 1020 30.12 849 25.07 -0.9 30.4 82 -3.6 25.5
02:00 1020 30.12 849 25.07 -0.9 30.3 79 -4.1 24.7
02:05 1020 30.12 849 25.07 -0.8 30.6 78 -4.2 24.4
02:10 1020 30.12 849 25.07 -0.6 31 79 -3.8 25.1
02:15 1020 30.12 849 25.07 -0.4 31.2 77 -4 24.8
02:20 1020 30.12 849 25.07 -0.4 31.3 78 -3.7 25.3
02:25 1020 30.12 849 25.07 -0.5 31.1 81 -3.4 25.9
02:30 1020 30.12 849 25.07 -0.5 31.2 79 -3.6 25.5
02:35 1020 30.12 849 25.07 -0.3 31.4 79 -3.6 25.5
02:40 1020 30.12 849 25.07 -0.4 31.3 76 -4 24.7
02:45 1020 30.12 849 25.07 -0.2 31.6 76 -3.9 24.9
02:50 1020 30.12 849 25.07 -0.1 31.8 78 -3.5 25.8
02:55 1020 30.12 849 25.07 -0.2 31.7 79 -3.4 25.9
03:00 1020 30.12 849 25.07 -0.2 31.7 77 -3.7 25.4
03:05 1020 30.12 849 25.07 -0.2 31.7 81 -3.1 26.5
03:10 1020 30.12 849 25.07 -0.6 30.9 83 -3.1 26.4
03:15 1020 30.12 849 25.07 -1.1 30 86 -3.2 26.2
03:20 1020 30.12 849 25.07 -1.3 29.7 84 -3.7 25.4
03:25 1020 30.12 849 25.07 -1 30.1 81 -3.8 25.1
03:30 1020 30.12 849 25.07 -0.8 30.6 81 -3.7 25.4
03:35 1020 30.12 849 25.07 -0.9 30.4 79 -4 24.7
03:40 1020 30.12 849 25.07 -0.6 30.9 77 -4.1 24.6
03:45 1020 30.12 849 25.07 -0.5 31.2 78 -3.8 25.2
03:50 1020 30.12 849 25.07 -0.6 30.8 81 -3.5 25.7
03:55 1020 30.12 849 25.07 -0.9 30.3 83 -3.5 25.7
04:00 1020 30.12 849 25.07 -0.9 30.4 82 -3.6 25.6
04:05 1020 30.12 849 25.07 -0.7 30.8 81 -3.6 25.6
04:10 1020 30.12 849 25.07 -0.7 30.7 81 -3.5 25.6
04:15 1020 30.12 849 25.07 -0.7 30.8 83 -3.2 26.2
04:20 1020 30.12 849 25.07 -0.8 30.5 83 -3.3 26.1
04:25 1020 30.12 849 25.07 -0.9 30.4 86 -3 26.7
04:30 1020 30.12 849 25.07 -0.9 30.3 86 -3 26.5
04:35 1020 30.12 849 25.07 -0.9 30.4 83 -3.4 26
04:40 1020 30.12 849 25.07 -0.6 30.8 79 -3.9 25
04:45 1020 30.12 849 25.07 -0.3 31.4 79 -3.5 25.7
04:50 1020 30.12 849 25.07 -0.3 31.5 75 -4.1 24.6
04:55 1020 30.12 849 25.07 -0.3 31.4 76 -4.1 24.6
05:00 1020 30.12 849 25.07 -0.2 31.7 76 -3.9 25
05:05 1020 30.12 849 25.07 -0 32 73 -4.3 24.2
05:10 1020 30.12 849 25.07 -0 32 72 -4.4 24
05:15 1020 30.12 849 25.07 -0 31.9 72 -4.4 24
05:20 1020 30.12 849 25.07 -0.1 31.8 73 -4.4 24.2
05:25 1020 30.12 849 25.07 -0.1 31.8 73 -4.4 24
05:30 1020 30.12 849 25.07 0.1 32.1 72 -4.4 24.1
05:35 1020 30.12 849 25.07 0.3 32.6 71 -4.3 24.2
05:40 1020 30.12 849 25.07 0.5 32.8 70 -4.3 24.2
05:45 1020 30.12 849 25.07 0.6 33 71 -4.1 24.6
05:50 1020 30.12 849 25.07 0.6 33 72 -3.9 25
05:55 1020 30.12 849 25.07 0.4 32.7 73 -3.8 25.1
06:00 1019 30.09 849 25.07 -0.2 31.7 76 -3.9 25.1
06:05 1019 30.09 849 25.07 -0.6 31 78 -3.9 25
06:10 1019 30.09 849 25.07 -0.9 30.4 80 -3.9 25
06:15 1019 30.09 849 25.07 -0.9 30.3 79 -4 24.7
06:20 1019 30.09 849 25.07 -0.8 30.6 79 -4 24.8
06:25 1020 30.12 849 25.07 -0.7 30.7 79 -3.9 24.9
06:30 1020 30.12 849 25.07 -0.5 31.1 77 -4 24.7
06:35 1020 30.12 849 25.07 -0.3 31.5 77 -3.9 24.9
06:40 1020 30.12 849 25.07 -0.3 31.5 76 -3.9 24.9
06:45 1020 30.12 849 25.07 -0.3 31.5 76 -4 24.7
06:50 1020 30.12 849 25.07 -0.4 31.4 75 -4.2 24.4
06:55 1020 30.12 849 25.07 -0.3 31.5 74 -4.3 24.3
07:00 1020 30.12 849 25.07 -0.1 31.9 77 -3.7 25.4
07:05 1020 30.12 849 25.07 -0.3 31.5 79 -3.4 25.8
07:10 1020 30.12 849 25.07 -0.6 30.9 80 -3.7 25.3
07:15 1020 30.12 849 25.07 -0.7 30.8 81 -3.5 25.6
07:20 1020 30.12 849 25.07 -0.6 31 80 -3.7 25.4
07:25 1020 30.12 849 25.07 -0.7 30.7 80 -3.8 25.2
07:30 1020 30.12 849 25.07 -0.9 30.3 83 -3.5 25.6
07:35 1020 30.12 849 25.07 -1.1 29.9 83 -3.7 25.4
07:40 1020 30.12 849 25.07 -1.2 29.8 83 -3.7 25.3
07:45 1020 30.12 849 25.07 -1.3 29.7 83 -3.8 25.2
07:50 1020 30.12 849 25.07 -1.2 29.8 82 -3.9 25.1
07:55 1020 30.12 849 25.07 -1.4 29.6 83 -3.9 24.9
08:00 1020 30.12 849 25.07 -1.4 29.4 82 -4.1 24.6
08:05 1020 30.12 849 25.07 -1.3 29.7 80 -4.2 24.4
08:10 1020 30.12 849 25.07 -1 30.2 80 -4.1 24.6
08:15 1020 30.12 849 25.07 -0.8 30.6 80 -3.8 25.1
08:20 1020 30.12 849 25.07 -0.6 31 78 -4 24.9
08:25 1020 30.12 849 25.07 -0.2 31.6 76 -4 24.8
08:30 1020 30.12 849 25.07 -0 31.9 74 -4.2 24.5
08:35 1020 30.12 849 25.07 0.3 32.5 72 -4.2 24.4
08:40 1020 30.12 849 25.07 0.1 32.3 74 -4 24.8
08:45 1020 30.12 849 25.07 0.4 32.7 73 -3.9 25
08:50 1020 30.12 849 25.07 0.8 33.4 72 -3.6 25.4
08:55 1020 30.12 849 25.07 0.2 32.3 79 -3 26.5
09:00 1020 30.12 849 25.07 -0.5 31.1 80 -3.6 25.6
09:05 1020 30.12 849 25.07 -0.9 30.4 82 -3.5 25.6
09:10 1020 30.12 849 25.07 -0.4 31.3 80 -3.4 25.9
09:15 1020 30.12 849 25.07 0.1 32.3 75 -3.8 25.2
09:20 1020 30.12 849 25.07 1 33.8 68 -4.2 24.5
09:25 1020 30.12 849 25.07 1.8 35.3 64 -4.2 24.4
09:30 1020 30.12 850 25.1 1.6 34.9 64 -4.4 24.1
09:35 1020 30.12 850 25.1 1.2 34.2 66 -4.5 23.9
09:40 1020 30.12 850 25.1 0.9 33.7 67 -4.6 23.8
09:45 1020 30.12 850 25.1 0.8 33.5 67 -4.5 23.9
09:50 1020 30.12 850 25.1 1 33.7 66 -4.8 23.4
09:55 1020 30.12 850 25.1 1 33.8 66 -4.6 23.8
10:00 1020 30.12 850 25.1 1.4 34.5 66 -4.3 24.3
10:05 1021 30.15 850 25.1 2 35.5 62 -4.5 23.9
10:10 1020 30.12 850 25.1 2 35.7 63 -4.3 24.3
10:15 1020 30.12 850 25.1 1.8 35.3 63 -4.4 24.1
10:20 1020 30.12 850 25.1 2.1 35.7 62 -4.5 23.9
10:25 1020 30.12 850 25.1 3 37.4 56 -4.9 23.2
10:30 1020 30.12 850 25.1 3.6 38.5 55 -4.5 23.9
10:35 1020 30.12 850 25.1 3.7 38.6 55 -4.5 23.8
10:40 1020 30.12 850 25.1 3.7 38.6 55 -4.5 23.9
10:45 1020 30.12 849 25.07 3.6 38.5 55 -4.7 23.6
10:50 1020 30.12 849 25.07 3.8 38.9 54 -4.6 23.8
10:55 1020 30.12 849 25.07 3.7 38.6 56 -4.2 24.4
11:00 1020 30.12 849 25.07 3.5 38.3 57 -4.2 24.4
11:05 1020 30.12 849 25.07 4 39.2 56 -4.1 24.7
11:10 1020 30.12 849 25.07 4.3 39.8 56 -3.7 25.3
11:15 1020 30.12 849 25.07 4.3 39.7 56 -3.7 25.4
11:20 1020 30.12 849 25.07 4.6 40.2 54 -3.8 25.1
11:25 1020 30.12 849 25.07 4.5 40.2 56 -3.6 25.6
11:30 1020 30.12 849 25.07 4.7 40.4 55 -3.5 25.7
11:35 1020 30.12 849 25.07 4.8 40.7 55 -3.4 25.9
11:40 1020 30.12 849 25.07 5.6 42 53 -3.3 26.1
11:45 1020 30.12 849 25.07 5.8 42.4 53 -2.9 26.7
11:50 1020 30.12 849 25.07 5.6 42 56 -2.6 27.3
11:55 1020 30.12 849 25.07 5.5 41.9 56 -2.5 27.4
12:00 1020 30.12 849 25.07 5.3 41.5 55 -3.1 26.4
12:05 1020 30.12 849 25.07 5 41 54 -3.6 25.6
12:10 1020 30.12 849 25.07 5.9 42.6 51 -3.4 25.9
12:15 1020 30.12 849 25.07 6.7 44 48 -3.6 25.5
12:20 1020 30.12 849 25.07 6.4 43.6 48 -3.8 25.1
12:25 1020 30.12 849 25.07 6.2 43.1 48 -3.9 25
12:30 1020 30.12 849 25.07 6.9 44.4 49 -3 26.6
12:35 1020 30.12 849 25.07 6.7 44.1 48 -3.4 25.8
12:40 1020 30.12 849 25.07 7.1 44.7 49 -3 26.7
12:45 1019 30.09 849 25.07 6.6 44 50 -3 26.6
12:50 1019 30.09 849 25.07 6.8 44.2 49 -3.1 26.5
12:55 1019 30.09 849 25.07 7 44.5 49 -3 26.6
13:00 1019 30.09 849 25.07 7 44.6 49 -3.1 26.4
13:05 1019 30.09 848 25.04 7.3 45.2 48 -2.9 26.8
13:10 1019 30.09 848 25.04 7.5 45.4 44 -4 24.8
13:15 1019 30.09 848 25.04 7.8 46 44 -3.7 25.4
13:20 1019 30.09 848 25.04 8.1 46.7 41 -4.2 24.4
13:25 1019 30.09 848 25.04 7.9 46.2 42 -4.1 24.6
13:30 1019 30.09 848 25.04 8.2 46.7 42 -3.9 25
13:35 1019 30.09 848 25.04 7.9 46.2 43 -4 24.9
13:40 1019 30.09 848 25.04 7.8 46.1 42 -4.1 24.6
13:45 1019 30.09 848 25.04 7.8 46 44 -3.7 25.4
13:50 1019 30.09 848 25.04 7.6 45.8 44 -3.9 24.9
13:55 1019 30.09 848 25.04 7.5 45.5 43 -4.2 24.4
14:00 1019 30.09 848 25.04 7.5 45.5 45 -3.8 25.2
14:05 1019 30.09 848 25.04 7.6 45.6 47 -2.9 26.7
14:10 1018 30.06 848 25.04 7.6 45.6 44 -3.8 25.2
14:15 1018 30.06 848 25.04 7.7 45.8 42 -4.3 24.2
14:20 1018 30.06 848 25.04 7.8 46 43 -3.9 24.9
14:25 1018 30.06 848 25.04 8.1 46.5 43 -3.7 25.3
14:30 1018 30.06 848 25.04 8.1 46.6 43 -3.7 25.4
14:35 1018 30.06 847 25.01 8.1 46.6 41 -4.3 24.3
14:40 1018 30.06 847 25.01 7.9 46.2 44 -3.7 25.4
14:45 1018 30.06 847 25.01 8.1 46.5 43 -3.8 25.2
14:50 1018 30.06 847 25.01 8.3 46.9 43 -3.4 25.9
14:55 1018 30.06 847 25.01 8.1 46.6 45 -3.1 26.5
15:00 1018 30.06 847 25.01 7.9 46.2 45 -3.4 25.9
15:05 1018 30.06 847 25.01 8.3 47 43 -3.4 25.9
15:10 1018 30.06 847 25.01 8.3 47 44 -3.2 26.2
15:15 1018 30.06 847 25.01 7.6 45.7 46 -3.4 26
15:20 1018 30.06 847 25.01 7.6 45.8 47 -3 26.7
15:25 1018 30.06 847 25.01 7.7 45.9 45 -3.3 26
15:30 1018 30.06 847 25.01 7.8 46 46 -3.2 26.3
15:35 1018 30.06 847 25.01 7.7 45.9 45 -3.6 25.6
15:40 1018 30.06 847 25.01 7.4 45.3 44 -4 24.8
15:45 1018 30.06 847 25.01 7.3 45.2 44 -4.1 24.7
15:50 1018 30.06 847 25.01 7.5 45.4 44 -3.9 25.1
15:55 1018 30.06 847 25.01 7.9 46.2 45 -3.3 26
16:00 1018 30.06 847 25.01 7.3 45.1 49 -2.7 27.2
16:05 1018 30.06 847 25.01 6.4 43.5 51 -2.9 26.7
16:10 1018 30.06 847 25.01 6.4 43.5 53 -2.4 27.6
16:15 1018 30.06 847 25.01 6.8 44.2 50 -2.8 26.9
16:20 1018 30.06 847 25.01 7.2 45 48 -3 26.5
16:25 1018 30.06 847 25.01 7.8 46 47 -2.7 27.1
16:30 1018 30.06 847 25.01 7.4 45.4 48 -2.8 27
16:35 1018 30.06 847 25.01 7 44.6 50 -2.8 27
16:40 1018 30.06 847 25.01 7.2 44.9 50 -2.6 27.3
16:45 1018 30.06 847 25.01 7.3 45.1 48 -2.9 26.7
16:50 1018 30.06 847 25.01 7.5 45.4 48 -2.7 27.1
16:55 1017 30.03 847 25.01 7 44.6 50 -2.6 27.4
17:00 1017 30.03 847 25.01 6.9 44.4 53 -2.1 28.3
17:05 1017 30.03 847 25.01 7.4 45.2 51 -2.2 28
17:10 1017 30.03 847 25.01 7.2 44.9 51 -2.1 28.2
17:15 1017 30.03 847 25.01 7.2 45 51 -2.3 27.9
17:20 1017 30.03 847 25.01 7.3 45.1 51 -2.1 28.2
17:25 1017 30.03 847 25.01 7.3 45.1 54 -1.5 29.3
17:30 1017 30.03 847 25.01 7.1 44.8 51 -2.2 28.1
17:35 1017 30.03 846 24.98 7 44.5 55 -1.5 29.4
17:40 1017 30.03 846 24.98 5.8 42.5 61 -1 30.1
17:45 1017 30.03 846 24.98 5.8 42.5 57 -2 28.5
17:50 1017 30.03 846 24.98 6.1 43 56 -2.1 28.2
17:55 1017 30.03 846 24.98 6 42.8 60 -1.2 29.9
18:00 1017 30.03 846 24.98 5.4 41.7 62 -1.4 29.5
18:05 1017 30.03 846 24.98 5.4 41.7 64 -1 30.3
18:10 1017 30.03 846 24.98 5.1 41.2 66 -0.8 30.6
18:15 1017 30.03 846 24.98 4.9 40.8 66 -0.9 30.4
18:20 1017 30.03 846 24.98 5.2 41.3 67 -0.5 31.2
18:25 1017 30.03 846 24.98 5.3 41.5 66 -0.5 31.1
18:30 1017 30.03 846 24.98 5.3 41.6 70 0.2 32.4
18:35 1017 30.03 846 24.98 4.9 40.8 69 -0.3 31.4
18:40 1017 30.03 846 24.98 5.2 41.4 64 -0.9 30.3
18:45 1017 30.03 846 24.98 5.8 42.4 60 -1.4 29.5
18:50 1017 30.03 846 24.98 5.8 42.4 58 -1.8 28.7
18:55 1017 30.03 846 24.98 6 42.9 58 -1.7 28.9
19:00 1017 30.03 846 24.98 6.2 43.2 58 -1.4 29.6
19:05 1017 30.03 846 24.98 6.2 43.2 59 -1.1 30
19:10 1017 30.03 846 24.98 6.2 43.1 58 -1.5 29.4
19:15 1017 30.03 846 24.98 6.2 43.2 58 -1.4 29.5
19:20 1017 30.03 846 24.98 6.2 43.1 58 -1.5 29.3
19:25 1017 30.03 846 24.98 6.2 43.1 59 -1.3 29.6
19:30 1017 30.03 846 24.98 6.1 43.1 59 -1.2 29.9
19:35 1017 30.03 846 24.98 6.1 43 61 -0.9 30.3
19:40 1017 30.03 846 24.98 5.9 42.7 61 -0.9 30.4
19:45 1017 30.03 846 24.98 5.9 42.6 62 -0.8 30.6
19:50 1017 30.03 846 24.98 5.9 42.6 62 -0.9 30.4
19:55 1017 30.03 846 24.98 6 42.8 62 -0.8 30.6
20:00 1017 30.03 846 24.98 6.1 43 61 -0.8 30.5
20:05 1017 30.03 846 24.98 6.1 43 61 -0.8 30.6
20:10 1017 30.03 846 24.98 6.1 43 61 -0.9 30.4
20:15 1017 30.03 846 24.98 5.9 42.6 66 -0 31.9
20:20 1017 30.03 846 24.98 5.7 42.3 64 -0.6 30.9
20:25 1017 30.03 846 24.98 5.8 42.5 63 -0.6 30.9
20:30 1017 30.03 846 24.98 5.8 42.4 64 -0.6 31
20:35 1017 30.03 846 24.98 5.7 42.3 64 -0.5 31
20:40 1017 30.03 846 24.98 5.4 41.8 66 -0.4 31.3
20:45 1017 30.03 846 24.98 5.4 41.7 65 -0.6 30.9
20:50 1017 30.03 846 24.98 5.5 42 66 -0.4 31.3
20:55 1017 30.03 846 24.98 5.7 42.2 64 -0.6 31
21:00 1017 30.03 846 24.98 5.8 42.4 64 -0.4 31.2
21:05 1017 30.03 846 24.98 5.8 42.4 65 -0.3 31.4
21:10 1017 30.03 846 24.98 5.7 42.2 65 -0.4 31.2
21:15 1017 30.03 846 24.98 5.8 42.4 62 -0.9 30.3
21:20 1017 30.03 846 24.98 5.9 42.6 61 -0.9 30.3
21:25 1017 30.03 847 25.01 6 42.7 63 -0.6 30.9
21:30 1017 30.03 847 25.01 5.7 42.3 65 -0.3 31.4
21:35 1017 30.03 847 25.01 5.7 42.2 64 -0.7 30.8
21:40 1017 30.03 847 25.01 5.7 42.3 65 -0.3 31.4
21:45 1018 30.06 847 25.01 5.6 42.1 66 -0.3 31.5
21:50 1018 30.06 847 25.01 5.5 42 67 -0.1 31.9
21:55 1018 30.06 847 25.01 5.5 41.9 66 -0.3 31.4
22:00 1018 30.06 847 25.01 5.6 42.1 64 -0.7 30.8
22:05 1018 30.06 847 25.01 5.7 42.2 65 -0.3 31.5
22:10 1018 30.06 847 25.01 5.7 42.2 66 -0.2 31.7
22:15 1018 30.06 847 25.01 5.7 42.3 67 0.1 32.1
22:20 1018 30.06 847 25.01 5.5 41.8 71 0.5 33
22:25 1017 30.03 847 25.01 4.8 40.7 72 0.2 32.4
22:30 1018 30.06 847 25.01 4.8 40.6 71 0.1 32.1
22:35 1018 30.06 847 25.01 4.9 40.8 72 0.3 32.6
22:40 1018 30.06 847 25.01 5 41.1 73 0.6 33
22:45 1018 30.06 847 25.01 4.9 40.9 75 0.8 33.5
22:50 1018 30.06 847 25.01 4.8 40.7 78 1.3 34.3
22:55 1018 30.06 847 25.01 4.7 40.4 79 1.3 34.4
23:00 1018 30.06 847 25.01 4.5 40 79 1.2 34.1
23:05 1018 30.06 847 25.01 3.8 38.8 83 1.2 34.2
23:10 1018 30.06 847 25.01 3.4 38.1 83 0.8 33.5
23:15 1018 30.06 847 25.01 3.1 37.6 85 0.8 33.5
23:20 1018 30.06 847 25.01 3 37.4 86 0.8 33.5
23:25 1018 30.06 847 25.01 2.9 37.3 84 0.5 32.9
23:30 1018 30.06 847 25.01 3.1 37.6 84 0.7 33.2
23:35 1018 30.06 847 25.01 3.2 37.8 84 0.7 33.3
23:40 1018 30.06 847 25.01 3.1 37.6 84 0.7 33.2
23:45 1018 30.06 847 25.01 3 37.4 85 0.8 33.4
23:50 1018 30.06 847 25.01 2.9 37.2 86 0.8 33.4
23:55 1018 30.06 847 25.01 2.7 36.8 88 0.8 33.5
24:00 1018 30.06 847 25.01 2.6 36.8 89 1 33.7